Explorer Of The Seas — C6SE4 — position and weather

sailwx.info

Track history (hours):
 
Tides and Currents Weather Stations Pressure Air Temp Water Temp Dewpoint Dewpoint Depression Visibility Wind Speed Wind Dir Waves Ship Positions

Explorer Of The Seas

Operator: Royal Caribbean Cruises Ltd

Last reported at 2018-Sep-19 03:31 UTC. Time now 2018-Sep-19 03:43 UTC.
Position N 48°28' W 124°42'.

Length 311 m; draft 9.1 m.

Type: Passenger vessel. MMSI: 311316000.

Date/timePositionNaut miles runAvg speedWind from/ knotsBaromVisibWave heightAir tempDewpointWater temp
2018-Sep-19 03:31N 48°28' W 124°42'614.2
2018-Sep-19 03:04N 48°28' W 124°52'113.8
2018-Sep-19 03:00N 48°28' W 124°53'713.8
2018-Sep-19 02:30N 48°28' W 125°03'510.4
2018-Sep-19 02:02N 48°28' W 125°11'0 7.2
2018-Sep-19 02:00N 48°28' W 125°11'4 7.7
2018-Sep-19 01:30N 48°28' W 125°17'3 7.4
2018-Sep-19 01:03N 48°28' W 125°22'0 7.3
2018-Sep-19 01:00N 48°27' W 125°22'4 7.2
2018-Sep-19 00:30N 48°27' W 125°28'3 7.0
2018-Sep-19 00:03N 48°27' W 125°32'0 6.5
2018-Sep-19 00:00N 48°27' W 125°33'4 7.2
2018-Sep-18 23:30N 48°26' W 125°38'3 6.9
2018-Sep-18 23:03N 48°26' W 125°43'0 7.3
2018-Sep-18 23:00N 48°26' W 125°43'4 7.5
2018-Sep-18 22:30N 48°25' W 125°49'3 7.5
2018-Sep-18 22:03N 48°25' W 125°54'0 7.6
2018-Sep-18 22:00N 48°25' W 125°55'4 7.9
2018-Sep-18 21:30N 48°24' W 126°00'4 8.0
2018-Sep-18 21:03N 48°24' W 126°06'0 8.0
2018-Sep-18 21:00N 48°24' W 126°06'4 7.8
2018-Sep-18 20:30N 48°23' W 126°12'4 7.9
2018-Sep-18 20:03N 48°23' W 126°18'1 7.7
2018-Sep-18 19:58N 48°23' W 126°19'4 7.9
2018-Sep-18 19:30N 48°22' W 126°24'3 7.0
2018-Sep-18 19:03N 48°25' W 126°27'0 7.7
2018-Sep-18 19:00N 48°25' W 126°27'4 7.9
2018-Sep-18 18:30N 48°29' W 126°27'4 8.0
2018-Sep-18 18:03N 48°33' W 126°27'0 8.1
2018-Sep-18 18:00N 48°33' W 126°27'4 7.9
2018-Sep-18 17:30N 48°37' W 126°27'12 7.0
2018-Sep-18 15:49N 48°38' W 126°09'3 7.4
2018-Sep-18 15:25N 48°38' W 126°05'3 7.0
2018-Sep-18 15:03N 48°37' W 126°01'1 7.2
2018-Sep-18 14:59N 48°37' W 126°00'4 7.8
2018-Sep-18 14:26N 48°36' W 125°54'4 8.0
2018-Sep-18 13:55N 48°35' W 125°48'6 7.9
2018-Sep-18 13:07N 48°34' W 125°39'1 7.5
2018-Sep-18 13:02N 48°34' W 125°38'0 7.6
2018-Sep-18 12:58N 48°34' W 125°37'6 7.9
2018-Sep-18 12:13N 48°33' W 125°28'2 8.2
2018-Sep-18 12:02N 48°33' W 125°26'3 8.7
2018-Sep-18 11:42N 48°32' W 125°22'2 8.7
2018-Sep-18 11:30N 48°32' W 125°19'5 8.7
2018-Sep-18 10:58N 48°31' W 125°12'5 9.0
2018-Sep-18 10:26N 48°31' W 125°05'4 9.0
2018-Sep-18 10:02N 48°31' W 124°59'0 9.9
2018-Sep-18 10:00N 48°31' W 124°59'4 8.9
2018-Sep-18 09:30N 48°31' W 124°52'4 8.7
2018-Sep-18 09:03N 48°31' W 124°46'0 8.8
2018-Sep-18 09:00N 48°31' W 124°46'3160.1
2018-Sep-18 09:00N 48°30' W 124°42'2 4.0 120 / 51023.610.8 10.010.012.5
2018-Sep-18 08:30N 48°29' W 124°39'4 9.2
2018-Sep-18 08:03N 48°28' W 124°34'0 9.9
2018-Sep-18 08:00N 48°27' W 124°33'5 9.1
2018-Sep-18 07:30N 48°26' W 124°27'4 9.2
2018-Sep-18 07:03N 48°24' W 124°21'0 8.7
2018-Sep-18 07:00N 48°24' W 124°20'5 9.1
2018-Sep-18 06:30N 48°22' W 124°14'4 8.9
2018-Sep-18 06:02N 48°21' W 124°08'0 8.7
2018-Sep-18 06:00N 48°20' W 124°08'5 9.3
2018-Sep-18 05:30N 48°19' W 124°01'6212.4
2018-Sep-18 00:33N 47°58' W 122°34'118.7
2018-Sep-18 00:30N 47°58' W 122°33'817.9
2018-Sep-18 00:03N 47°51' W 122°27'118.8
2018-Sep-18 00:00N 47°50' W 122°27'918.2
2018-Sep-17 23:30N 47°41' W 122°27'4 9.1
2018-Sep-17 23:03N 47°38' W 122°23'0 0.2
2018-Sep-17 23:00N 47°38' W 122°23'0 0.0
2018-Sep-17 21:28N 47°38' W 122°23'0 0.0
2018-Sep-17 19:37N 47°38' W 122°23'0 0.0
2018-Sep-17 19:28N 47°38' W 122°23'0 0.0
2018-Sep-17 17:46N 47°38' W 122°23'0 0.0
2018-Sep-17 12:45N 47°38' W 122°23'0 0.0
2018-Sep-17 12:30N 47°38' W 122°23'1 2.0
2018-Sep-17 12:03N 47°37' W 122°24'1 9.4
2018-Sep-17 12:00N 47°37' W 122°25'612.9
2018-Sep-17 11:30N 47°44' W 122°27'715.4
2018-Sep-17 11:03N 47°50' W 122°29'115.4
2018-Sep-17 11:00N 47°51' W 122°29'2212.8
2018-Sep-17 09:16N 48°10' W 122°47'313.1
2018-Sep-17 09:03N 48°11' W 122°51'113.9
2018-Sep-17 08:58N 48°11' W 122°52'714.3
2018-Sep-17 08:30N 48°12' W 123°02'614.3
2018-Sep-17 08:03N 48°11' W 123°12'114.6
2018-Sep-17 08:00N 48°11' W 123°13'713.5
2018-Sep-17 07:30N 48°10' W 123°23'4 7.9
2018-Sep-17 07:02N 48°11' W 123°28'0 5.1
2018-Sep-17 07:00N 48°11' W 123°28'2 4.1
2018-Sep-17 06:30N 48°12' W 123°31'7 1.5
2018-Sep-17 01:53N 48°19' W 123°27'2 5.3
2018-Sep-17 01:26N 48°21' W 123°26'3 0.3
2018-Sep-16 13:57N 48°24' W 123°24'510.3
2018-Sep-16 13:27N 48°19' W 123°25'611.9
2018-Sep-16 12:55N 48°13' W 123°30'511.1
2018-Sep-16 12:27N 48°13' W 123°38'7 9.7
2018-Sep-16 11:46N 48°13' W 123°48'511.3
2018-Sep-16 11:20N 48°13' W 123°55'311.1
2018-Sep-16 11:02N 48°15' W 123°60'010.7
2018-Sep-16 11:00N 48°15' W 124°00'611.0
2018-Sep-16 10:30N 48°17' W 124°08'511.2
2018-Sep-16 10:03N 48°19' W 124°15'111.1
2018-Sep-16 10:00N 48°20' W 124°15'611.5
2018-Sep-16 09:30N 48°22' W 124°23'510.8
2018-Sep-16 09:03N 48°24' W 124°30'111.0
2018-Sep-16 09:00N 48°24' W 124°31'8460.7
2018-Sep-16 09:00N 48°18' W 124°24'1326.1 090 / 171010.710.8 10.010.010.1
2018-Sep-16 08:30N 48°26' W 124°38'510.9
2018-Sep-16 08:03N 48°28' W 124°45'111.2
2018-Sep-16 08:01N 48°28' W 124°46'5 9.3
2018-Sep-16 07:28N 48°28' W 124°54'3 7.9
2018-Sep-16 07:03N 48°28' W 124°59'0 7.8
2018-Sep-16 06:59N 48°28' W 124°59'4 7.3
2018-Sep-16 06:29N 48°28' W 125°05'3 7.3
2018-Sep-16 06:03N 48°28' W 125°10'1 7.4
2018-Sep-16 05:57N 48°28' W 125°11'4 7.7
2018-Sep-16 05:29N 48°27' W 125°16'3 7.6
2018-Sep-16 05:03N 48°27' W 125°21'0 7.5
2018-Sep-16 05:00N 48°27' W 125°22'4 7.5
2018-Sep-16 04:30N 48°26' W 125°27'3 7.7
2018-Sep-16 04:03N 48°25' W 125°32'0 8.0
2018-Sep-16 04:00N 48°25' W 125°32'4 7.4
2018-Sep-16 03:30N 48°23' W 125°38'3 7.7
2018-Sep-16 03:03N 48°22' W 125°42'0 8.0
2018-Sep-16 03:00N 48°22' W 125°43'5 8.1
2018-Sep-16 02:26N 48°20' W 125°50'3 8.0
2018-Sep-16 02:03N 48°19' W 125°54'0 8.4
2018-Sep-16 02:00N 48°19' W 125°54'4 7.9
2018-Sep-16 01:30N 48°18' W 125°60'4 7.9
2018-Sep-16 01:02N 48°17' W 126°05'0 7.3
2018-Sep-16 00:59N 48°16' W 126°06'21 1.8
2018-Sep-15 13:20N 48°36' W 125°53'3 9.7
2018-Sep-15 13:03N 48°35' W 125°49'0 9.2
2018-Sep-15 13:00N 48°35' W 125°48'5 9.6
2018-Sep-15 12:27N 48°34' W 125°40'4 8.7
2018-Sep-15 12:03N 48°34' W 125°35'0 8.2
2018-Sep-15 12:00N 48°33' W 125°35'5417.8
2018-Sep-15 12:00N 48°30' W 125°30'16 7.5 170 / 151012.510.8 11.011.010.0
2018-Sep-15 09:52N 48°31' W 125°06'410.2
2018-Sep-15 09:30N 48°31' W 125°01'5 9.9
2018-Sep-15 09:02N 48°31' W 124°54'010.1
2018-Sep-15 09:01N 48°31' W 124°53'4215.0
2018-Sep-15 09:00N 48°30' W 124°48'2 3.4 140 / 151014.310.8 10.010.010.0
2018-Sep-15 08:30N 48°31' W 124°46'4 9.9
2018-Sep-15 08:03N 48°29' W 124°40'110.3
2018-Sep-15 08:00N 48°29' W 124°39'510.2
2018-Sep-15 07:30N 48°27' W 124°32'510.2
2018-Sep-15 07:03N 48°25' W 124°25'110.3
2018-Sep-15 07:00N 48°25' W 124°25'510.1
2018-Sep-15 06:30N 48°23' W 124°18'510.0
2018-Sep-15 06:01N 48°21' W 124°11'011.0
2018-Sep-15 06:00N 48°21' W 124°10'510.1
2018-Sep-15 05:30N 48°19' W 124°03'7516.1
2018-Sep-15 00:50N 47°41' W 122°27'1841.8
2018-Sep-15 00:24N 47°58' W 122°34'617.8
2018-Sep-15 00:03N 47°53' W 122°28'118.3
2018-Sep-15 00:00N 47°52' W 122°28'918.1
2018-Sep-14 23:31N 47°43' W 122°26'614.4
2018-Sep-14 23:03N 47°37' W 122°24'0 7.7
2018-Sep-14 23:00N 47°37' W 122°23'0 0.8
2018-Sep-14 22:30N 47°38' W 122°23'0 0.0
2018-Sep-14 21:59N 47°38' W 122°23'0 0.0
2018-Sep-14 21:24N 47°38' W 122°23'0 0.0
2018-Sep-14 21:00N 47°38' W 122°23'0 0.0
2018-Sep-14 20:30N 47°38' W 122°23'0 0.0
2018-Sep-14 20:03N 47°38' W 122°23'0 0.0
2018-Sep-14 20:00N 47°38' W 122°23'0 0.0
2018-Sep-14 19:27N 47°38' W 122°23'0 0.0
2018-Sep-14 19:01N 47°38' W 122°23'0 0.0
2018-Sep-14 18:55N 47°38' W 122°23'0 0.0
2018-Sep-14 18:30N 47°38' W 122°23'0 0.0
2018-Sep-14 17:59N 47°38' W 122°23'0 0.0
2018-Sep-14 17:29N 47°38' W 122°23'0 0.0
2018-Sep-14 16:58N 47°38' W 122°23'0 0.0
2018-Sep-14 16:29N 47°38' W 122°23'0 0.0
2018-Sep-14 15:58N 47°38' W 122°23'0 0.0
2018-Sep-14 15:30N 47°38' W 122°23'0 0.0
2018-Sep-14 15:02N 47°38' W 122°23'0 0.0
2018-Sep-14 14:56N 47°38' W 122°23'0 0.0
2018-Sep-14 14:23N 47°38' W 122°23'0 0.0
2018-Sep-14 14:00N 47°38' W 122°23'0 0.0
2018-Sep-14 13:30N 47°38' W 122°23'0 0.0
2018-Sep-14 13:02N 47°38' W 122°23'0 1.9
2018-Sep-14 12:59N 47°38' W 122°23'3 5.6
2018-Sep-14 12:30N 47°38' W 122°27'2 5.3
2018-Sep-14 12:03N 47°37' W 122°23'0 6.9
2018-Sep-14 12:00N 47°37' W 122°24'510.8
2018-Sep-14 11:30N 47°42' W 122°28'614.5
2018-Sep-14 11:04N 47°49' W 122°27'113.8
2018-Sep-14 11:00N 47°49' W 122°28'2313.5
2018-Sep-14 09:17N 48°09' W 122°45'414.8
2018-Sep-14 09:02N 48°11' W 122°50'117.8
2018-Sep-14 08:58N 48°11' W 122°52'714.3
2018-Sep-14 08:31N 48°12' W 123°02'714.8
2018-Sep-14 08:03N 48°11' W 123°12'113.2
2018-Sep-14 08:00N 48°11' W 123°13'612.6
2018-Sep-14 07:31N 48°10' W 123°22'4 7.5
2018-Sep-14 06:57N 48°11' W 123°28'3 5.8
2018-Sep-14 06:29N 48°12' W 123°32'1 2.4
2018-Sep-14 06:00N 48°12' W 123°30'0 0.0 260 / 81019.510.8 10.3 14.0
2018-Sep-14 03:00N 48°12' W 123°30'11 6.4 250 / 151018.710.8 10.7 14.2
2018-Sep-14 01:17N 48°22' W 123°24'2 0.2
2018-Sep-13 14:57N 48°25' W 123°24'1213.3
2018-Sep-13 14:02N 48°14' W 123°31'117.7
2018-Sep-13 13:59N 48°14' W 123°33'918.1
2018-Sep-13 13:29N 48°13' W 123°46'818.3
2018-Sep-13 13:03N 48°14' W 123°58'119.1
2018-Sep-13 12:59N 48°15' W 123°60'919.1
2018-Sep-13 12:30N 48°19' W 124°12'918.8
2018-Sep-13 12:03N 48°22' W 124°24'118.9
2018-Sep-13 12:00N 48°23' W 124°25'918.2
2018-Sep-13 11:30N 48°27' W 124°38'818.1
2018-Sep-13 11:02N 48°29' W 124°50'118.7
2018-Sep-13 11:00N 48°29' W 124°51'918.5
2018-Sep-13 10:30N 48°29' W 125°05'817.9
2018-Sep-13 10:03N 48°29' W 125°17'116.4
2018-Sep-13 10:00N 48°30' W 125°18'917.9
2018-Sep-13 09:30N 48°34' W 125°29'818.0
2018-Sep-13 09:03N 48°38' W 125°40'117.6
2018-Sep-13 09:00N 48°39' W 125°41'4270.5
2018-Sep-13 09:00N 48°36' W 125°36'1327.2 180 / 101016.510.8 12.512.512.6
2018-Sep-13 08:30N 48°44' W 125°52'817.5
2018-Sep-13 08:03N 48°48' W 126°03'117.7
2018-Sep-13 08:00N 48°48' W 126°04'817.0
2018-Sep-13 07:30N 48°52' W 126°15'817.6
2018-Sep-13 07:03N 48°57' W 126°25'118.3
2018-Sep-13 07:00N 48°57' W 126°26'1110.6
2018-Sep-13 06:00N 49°00' W 126°42'5618.6 320 / 151016.627.0 12.1 14.0
2018-Sep-13 03:00N 49°30' W 127°54'3323.5 330 / 151017.427.0 12.0 14.0
2018-Sep-13 01:36N 49°48' W 128°36'2017.9
2018-Sep-13 00:30N 49°59' W 129°02'1117.8
2018-Sep-12 23:52N 50°05' W 129°17'717.3
2018-Sep-12 23:27N 50°09' W 129°26'1017.4
2018-Sep-12 22:54N 50°14' W 129°39'2517.5
2018-Sep-12 21:29N 50°28' W 130°11'22217.8
2018-Sep-12 09:00N 53°36' W 133°24'3219.3 310 / 71018.010.8 12.012.013.8
2018-Sep-12 07:19N 54°07' W 133°42'518.4
2018-Sep-12 07:03N 54°11' W 133°44'118.0
2018-Sep-12 06:59N 54°13' W 133°45'2018.5
2018-Sep-12 05:55N 54°32' W 133°53'817.9
2018-Sep-12 05:28N 54°39' W 133°57'717.6
2018-Sep-12 05:03N 54°46' W 133°60'117.0
2018-Sep-12 05:00N 54°47' W 134°00'2612.8
2018-Sep-12 03:00N 55°12' W 134°12'   290 / 171017.127.0 13.4 14.5
2018-Sep-09 15:00N 57°06' W 134°06'4916.3 1008.910.8 10.2 9.9
2018-Sep-09 12:00N 56°18' W 134°24'5418.1 360 / 301007.7 5.4 10.010.0 8.0
2018-Sep-09 09:00N 55°24' W 134°12'   060 / 281007.7 5.4 13.013.013.0
Track history (hours):
 
Tides and Currents Weather Stations Pressure Air Temp Water Temp Dewpoint Dewpoint Depression Visibility Wind Speed Wind Dir Waves Ship Positions

Explorer Of The Seas

Operator: Royal Caribbean Cruises Ltd

Last reported at 2018-Sep-19 03:31 UTC. Time now 2018-Sep-19 03:43 UTC.
Position N 48°28' W 124°42'.

Length 311 m; draft 9.1 m.

Type: Passenger vessel. MMSI: 311316000.

Date/timePositionNaut miles runAvg speedWind from/ knotsBaromVisibWave heightAir tempDewpointWater temp
2018-Sep-19 03:31N 48°28' W 124°42'614.2
2018-Sep-19 03:04N 48°28' W 124°52'113.8
2018-Sep-19 03:00N 48°28' W 124°53'713.8
2018-Sep-19 02:30N 48°28' W 125°03'510.4
2018-Sep-19 02:02N 48°28' W 125°11'0 7.2
2018-Sep-19 02:00N 48°28' W 125°11'4 7.7
2018-Sep-19 01:30N 48°28' W 125°17'3 7.4
2018-Sep-19 01:03N 48°28' W 125°22'0 7.3
2018-Sep-19 01:00N 48°27' W 125°22'4 7.2
2018-Sep-19 00:30N 48°27' W 125°28'3 7.0
2018-Sep-19 00:03N 48°27' W 125°32'0 6.5
2018-Sep-19 00:00N 48°27' W 125°33'4 7.2
2018-Sep-18 23:30N 48°26' W 125°38'3 6.9
2018-Sep-18 23:03N 48°26' W 125°43'0 7.3
2018-Sep-18 23:00N 48°26' W 125°43'4 7.5
2018-Sep-18 22:30N 48°25' W 125°49'3 7.5
2018-Sep-18 22:03N 48°25' W 125°54'0 7.6
2018-Sep-18 22:00N 48°25' W 125°55'4 7.9
2018-Sep-18 21:30N 48°24' W 126°00'4 8.0
2018-Sep-18 21:03N 48°24' W 126°06'0 8.0
2018-Sep-18 21:00N 48°24' W 126°06'4 7.8
2018-Sep-18 20:30N 48°23' W 126°12'4 7.9
2018-Sep-18 20:03N 48°23' W 126°18'1 7.7
2018-Sep-18 19:58N 48°23' W 126°19'4 7.9
2018-Sep-18 19:30N 48°22' W 126°24'3 7.0
2018-Sep-18 19:03N 48°25' W 126°27'0 7.7
2018-Sep-18 19:00N 48°25' W 126°27'4 7.9
2018-Sep-18 18:30N 48°29' W 126°27'4 8.0
2018-Sep-18 18:03N 48°33' W 126°27'0 8.1
2018-Sep-18 18:00N 48°33' W 126°27'4 7.9
2018-Sep-18 17:30N 48°37' W 126°27'12 7.0
2018-Sep-18 15:49N 48°38' W 126°09'3 7.4
2018-Sep-18 15:25N 48°38' W 126°05'3 7.0
2018-Sep-18 15:03N 48°37' W 126°01'1 7.2
2018-Sep-18 14:59N 48°37' W 126°00'4 7.8
2018-Sep-18 14:26N 48°36' W 125°54'4 8.0
2018-Sep-18 13:55N 48°35' W 125°48'6 7.9
2018-Sep-18 13:07N 48°34' W 125°39'1 7.5
2018-Sep-18 13:02N 48°34' W 125°38'0 7.6
2018-Sep-18 12:58N 48°34' W 125°37'6 7.9
2018-Sep-18 12:13N 48°33' W 125°28'2 8.2
2018-Sep-18 12:02N 48°33' W 125°26'3 8.7
2018-Sep-18 11:42N 48°32' W 125°22'2 8.7
2018-Sep-18 11:30N 48°32' W 125°19'5 8.7
2018-Sep-18 10:58N 48°31' W 125°12'5 9.0
2018-Sep-18 10:26N 48°31' W 125°05'4 9.0
2018-Sep-18 10:02N 48°31' W 124°59'0 9.9
2018-Sep-18 10:00N 48°31' W 124°59'4 8.9
2018-Sep-18 09:30N 48°31' W 124°52'4 8.7
2018-Sep-18 09:03N 48°31' W 124°46'0 8.8
2018-Sep-18 09:00N 48°31' W 124°46'3160.1
2018-Sep-18 09:00N 48°30' W 124°42'2 4.0 120 / 51023.610.8 10.010.012.5
2018-Sep-18 08:30N 48°29' W 124°39'4 9.2
2018-Sep-18 08:03N 48°28' W 124°34'0 9.9
2018-Sep-18 08:00N 48°27' W 124°33'5 9.1
2018-Sep-18 07:30N 48°26' W 124°27'4 9.2
2018-Sep-18 07:03N 48°24' W 124°21'0 8.7
2018-Sep-18 07:00N 48°24' W 124°20'5 9.1
2018-Sep-18 06:30N 48°22' W 124°14'4 8.9
2018-Sep-18 06:02N 48°21' W 124°08'0 8.7
2018-Sep-18 06:00N 48°20' W 124°08'5 9.3
2018-Sep-18 05:30N 48°19' W 124°01'6212.4
2018-Sep-18 00:33N 47°58' W 122°34'118.7
2018-Sep-18 00:30N 47°58' W 122°33'817.9
2018-Sep-18 00:03N 47°51' W 122°27'118.8
2018-Sep-18 00:00N 47°50' W 122°27'918.2
2018-Sep-17 23:30N 47°41' W 122°27'4 9.1
2018-Sep-17 23:03N 47°38' W 122°23'0 0.2
2018-Sep-17 23:00N 47°38' W 122°23'0 0.0
2018-Sep-17 21:28N 47°38' W 122°23'0 0.0
2018-Sep-17 19:37N 47°38' W 122°23'0 0.0
2018-Sep-17 19:28N 47°38' W 122°23'0 0.0
2018-Sep-17 17:46N 47°38' W 122°23'0 0.0
2018-Sep-17 12:45N 47°38' W 122°23'0 0.0
2018-Sep-17 12:30N 47°38' W 122°23'1 2.0
2018-Sep-17 12:03N 47°37' W 122°24'1 9.4
2018-Sep-17 12:00N 47°37' W 122°25'612.9
2018-Sep-17 11:30N 47°44' W 122°27'715.4
2018-Sep-17 11:03N 47°50' W 122°29'115.4
2018-Sep-17 11:00N 47°51' W 122°29'2212.8
2018-Sep-17 09:16N 48°10' W 122°47'313.1
2018-Sep-17 09:03N 48°11' W 122°51'113.9
2018-Sep-17 08:58N 48°11' W 122°52'714.3
2018-Sep-17 08:30N 48°12' W 123°02'614.3
2018-Sep-17 08:03N 48°11' W 123°12'114.6
2018-Sep-17 08:00N 48°11' W 123°13'713.5
2018-Sep-17 07:30N 48°10' W 123°23'4 7.9
2018-Sep-17 07:02N 48°11' W 123°28'0 5.1
2018-Sep-17 07:00N 48°11' W 123°28'2 4.1
2018-Sep-17 06:30N 48°12' W 123°31'7 1.5
2018-Sep-17 01:53N 48°19' W 123°27'2 5.3
2018-Sep-17 01:26N 48°21' W 123°26'3 0.3
2018-Sep-16 13:57N 48°24' W 123°24'510.3
2018-Sep-16 13:27N 48°19' W 123°25'611.9
2018-Sep-16 12:55N 48°13' W 123°30'511.1
2018-Sep-16 12:27N 48°13' W 123°38'7 9.7
2018-Sep-16 11:46N 48°13' W 123°48'511.3
2018-Sep-16 11:20N 48°13' W 123°55'311.1
2018-Sep-16 11:02N 48°15' W 123°60'010.7
2018-Sep-16 11:00N 48°15' W 124°00'611.0
2018-Sep-16 10:30N 48°17' W 124°08'511.2
2018-Sep-16 10:03N 48°19' W 124°15'111.1
2018-Sep-16 10:00N 48°20' W 124°15'611.5
2018-Sep-16 09:30N 48°22' W 124°23'510.8
2018-Sep-16 09:03N 48°24' W 124°30'111.0
2018-Sep-16 09:00N 48°24' W 124°31'8460.7
2018-Sep-16 09:00N 48°18' W 124°24'1326.1 090 / 171010.710.8 10.010.010.1
2018-Sep-16 08:30N 48°26' W 124°38'510.9
2018-Sep-16 08:03N 48°28' W 124°45'111.2
2018-Sep-16 08:01N 48°28' W 124°46'5 9.3
2018-Sep-16 07:28N 48°28' W 124°54'3 7.9
2018-Sep-16 07:03N 48°28' W 124°59'0 7.8
2018-Sep-16 06:59N 48°28' W 124°59'4 7.3
2018-Sep-16 06:29N 48°28' W 125°05'3 7.3
2018-Sep-16 06:03N 48°28' W 125°10'1 7.4
2018-Sep-16 05:57N 48°28' W 125°11'4 7.7
2018-Sep-16 05:29N 48°27' W 125°16'3 7.6
2018-Sep-16 05:03N 48°27' W 125°21'0 7.5
2018-Sep-16 05:00N 48°27' W 125°22'4 7.5
2018-Sep-16 04:30N 48°26' W 125°27'3 7.7
2018-Sep-16 04:03N 48°25' W 125°32'0 8.0
2018-Sep-16 04:00N 48°25' W 125°32'4 7.4
2018-Sep-16 03:30N 48°23' W 125°38'3 7.7
2018-Sep-16 03:03N 48°22' W 125°42'0 8.0
2018-Sep-16 03:00N 48°22' W 125°43'5 8.1
2018-Sep-16 02:26N 48°20' W 125°50'3 8.0
2018-Sep-16 02:03N 48°19' W 125°54'0 8.4
2018-Sep-16 02:00N 48°19' W 125°54'4 7.9
2018-Sep-16 01:30N 48°18' W 125°60'4 7.9
2018-Sep-16 01:02N 48°17' W 126°05'0 7.3
2018-Sep-16 00:59N 48°16' W 126°06'21 1.8
2018-Sep-15 13:20N 48°36' W 125°53'3 9.7
2018-Sep-15 13:03N 48°35' W 125°49'0 9.2
2018-Sep-15 13:00N 48°35' W 125°48'5 9.6
2018-Sep-15 12:27N 48°34' W 125°40'4 8.7
2018-Sep-15 12:03N 48°34' W 125°35'0 8.2
2018-Sep-15 12:00N 48°33' W 125°35'5417.8
2018-Sep-15 12:00N 48°30' W 125°30'16 7.5 170 / 151012.510.8 11.011.010.0
2018-Sep-15 09:52N 48°31' W 125°06'410.2
2018-Sep-15 09:30N 48°31' W 125°01'5 9.9
2018-Sep-15 09:02N 48°31' W 124°54'010.1
2018-Sep-15 09:01N 48°31' W 124°53'4215.0
2018-Sep-15 09:00N 48°30' W 124°48'2 3.4 140 / 151014.310.8 10.010.010.0
2018-Sep-15 08:30N 48°31' W 124°46'4 9.9
2018-Sep-15 08:03N 48°29' W 124°40'110.3
2018-Sep-15 08:00N 48°29' W 124°39'510.2
2018-Sep-15 07:30N 48°27' W 124°32'510.2
2018-Sep-15 07:03N 48°25' W 124°25'110.3
2018-Sep-15 07:00N 48°25' W 124°25'510.1
2018-Sep-15 06:30N 48°23' W 124°18'510.0
2018-Sep-15 06:01N 48°21' W 124°11'011.0
2018-Sep-15 06:00N 48°21' W 124°10'510.1
2018-Sep-15 05:30N 48°19' W 124°03'7516.1
2018-Sep-15 00:50N 47°41' W 122°27'1841.8
2018-Sep-15 00:24N 47°58' W 122°34'617.8
2018-Sep-15 00:03N 47°53' W 122°28'118.3
2018-Sep-15 00:00N 47°52' W 122°28'918.1
2018-Sep-14 23:31N 47°43' W 122°26'614.4
2018-Sep-14 23:03N 47°37' W 122°24'0 7.7
2018-Sep-14 23:00N 47°37' W 122°23'0 0.8
2018-Sep-14 22:30N 47°38' W 122°23'0 0.0
2018-Sep-14 21:59N 47°38' W 122°23'0 0.0
2018-Sep-14 21:24N 47°38' W 122°23'0 0.0
2018-Sep-14 21:00N 47°38' W 122°23'0 0.0
2018-Sep-14 20:30N 47°38' W 122°23'0 0.0
2018-Sep-14 20:03N 47°38' W 122°23'0 0.0
2018-Sep-14 20:00N 47°38' W 122°23'0 0.0
2018-Sep-14 19:27N 47°38' W 122°23'0 0.0
2018-Sep-14 19:01N 47°38' W 122°23'0 0.0
2018-Sep-14 18:55N 47°38' W 122°23'0 0.0
2018-Sep-14 18:30N 47°38' W 122°23'0 0.0
2018-Sep-14 17:59N 47°38' W 122°23'0 0.0
2018-Sep-14 17:29N 47°38' W 122°23'0 0.0
2018-Sep-14 16:58N 47°38' W 122°23'0 0.0
2018-Sep-14 16:29N 47°38' W 122°23'0 0.0
2018-Sep-14 15:58N 47°38' W 122°23'0 0.0
2018-Sep-14 15:30N 47°38' W 122°23'0 0.0
2018-Sep-14 15:02N 47°38' W 122°23'0 0.0
2018-Sep-14 14:56N 47°38' W 122°23'0 0.0
2018-Sep-14 14:23N 47°38' W 122°23'0 0.0
2018-Sep-14 14:00N 47°38' W 122°23'0 0.0
2018-Sep-14 13:30N 47°38' W 122°23'0 0.0
2018-Sep-14 13:02N 47°38' W 122°23'0 1.9
2018-Sep-14 12:59N 47°38' W 122°23'3 5.6
2018-Sep-14 12:30N 47°38' W 122°27'2 5.3
2018-Sep-14 12:03N 47°37' W 122°23'0 6.9
2018-Sep-14 12:00N 47°37' W 122°24'510.8
2018-Sep-14 11:30N 47°42' W 122°28'614.5
2018-Sep-14 11:04N 47°49' W 122°27'113.8
2018-Sep-14 11:00N 47°49' W 122°28'2313.5
2018-Sep-14 09:17N 48°09' W 122°45'414.8
2018-Sep-14 09:02N 48°11' W 122°50'117.8
2018-Sep-14 08:58N 48°11' W 122°52'714.3
2018-Sep-14 08:31N 48°12' W 123°02'714.8
2018-Sep-14 08:03N 48°11' W 123°12'113.2
2018-Sep-14 08:00N 48°11' W 123°13'612.6
2018-Sep-14 07:31N 48°10' W 123°22'4 7.5
2018-Sep-14 06:57N 48°11' W 123°28'3 5.8
2018-Sep-14 06:29N 48°12' W 123°32'1 2.4
2018-Sep-14 06:00N 48°12' W 123°30'0 0.0 260 / 81019.510.8 10.3 14.0
2018-Sep-14 03:00N 48°12' W 123°30'11 6.4 250 / 151018.710.8 10.7 14.2
2018-Sep-14 01:17N 48°22' W 123°24'2 0.2
2018-Sep-13 14:57N 48°25' W 123°24'1213.3
2018-Sep-13 14:02N 48°14' W 123°31'117.7
2018-Sep-13 13:59N 48°14' W 123°33'918.1
2018-Sep-13 13:29N 48°13' W 123°46'818.3
2018-Sep-13 13:03N 48°14' W 123°58'119.1
2018-Sep-13 12:59N 48°15' W 123°60'919.1
2018-Sep-13 12:30N 48°19' W 124°12'918.8
2018-Sep-13 12:03N 48°22' W 124°24'118.9
2018-Sep-13 12:00N 48°23' W 124°25'918.2
2018-Sep-13 11:30N 48°27' W 124°38'818.1
2018-Sep-13 11:02N 48°29' W 124°50'118.7
2018-Sep-13 11:00N 48°29' W 124°51'918.5
2018-Sep-13 10:30N 48°29' W 125°05'817.9
2018-Sep-13 10:03N 48°29' W 125°17'116.4
2018-Sep-13 10:00N 48°30' W 125°18'917.9
2018-Sep-13 09:30N 48°34' W 125°29'818.0
2018-Sep-13 09:03N 48°38' W 125°40'117.6
2018-Sep-13 09:00N 48°39' W 125°41'4270.5
2018-Sep-13 09:00N 48°36' W 125°36'1327.2 180 / 101016.510.8 12.512.512.6
2018-Sep-13 08:30N 48°44' W 125°52'817.5
2018-Sep-13 08:03N 48°48' W 126°03'117.7
2018-Sep-13 08:00N 48°48' W 126°04'817.0
2018-Sep-13 07:30N 48°52' W 126°15'817.6
2018-Sep-13 07:03N 48°57' W 126°25'118.3
2018-Sep-13 07:00N 48°57' W 126°26'1110.6
2018-Sep-13 06:00N 49°00' W 126°42'5618.6 320 / 151016.627.0 12.1 14.0
2018-Sep-13 03:00N 49°30' W 127°54'3323.5 330 / 151017.427.0 12.0 14.0
2018-Sep-13 01:36N 49°48' W 128°36'2017.9
2018-Sep-13 00:30N 49°59' W 129°02'1117.8
2018-Sep-12 23:52N 50°05' W 129°17'717.3
2018-Sep-12 23:27N 50°09' W 129°26'1017.4
2018-Sep-12 22:54N 50°14' W 129°39'2517.5
2018-Sep-12 21:29N 50°28' W 130°11'22217.8
2018-Sep-12 09:00N 53°36' W 133°24'3219.3 310 / 71018.010.8 12.012.013.8
2018-Sep-12 07:19N 54°07' W 133°42'518.4
2018-Sep-12 07:03N 54°11' W 133°44'118.0
2018-Sep-12 06:59N 54°13' W 133°45'2018.5
2018-Sep-12 05:55N 54°32' W 133°53'817.9
2018-Sep-12 05:28N 54°39' W 133°57'717.6
2018-Sep-12 05:03N 54°46' W 133°60'117.0
2018-Sep-12 05:00N 54°47' W 134°00'2612.8
2018-Sep-12 03:00N 55°12' W 134°12'   290 / 171017.127.0 13.4 14.5
2018-Sep-09 15:00N 57°06' W 134°06'4916.3 1008.910.8 10.2 9.9
2018-Sep-09 12:00N 56°18' W 134°24'5418.1 360 / 301007.7 5.4 10.010.0 8.0
2018-Sep-09 09:00N 55°24' W 134°12'   060 / 281007.7 5.4 13.013.013.0

Dump ship's entire track history